Time;durP1;ratioP1;P1;durP2;ratioP2;P2;SDS_P1;SDS_P2;PMS_P1;PMS_P2;Temp;Humidity;BMP_temperature;BMP_pressure;BME280_temperature;BME280_humidity;BME280_pressure;Samples;Min_cycle;Max_cycle;Signal;HPM_P1;HPM_P2
2022/04/12 00:00:14;;;;;;;;;;;8.70;99.90;;;;;;4999805;28;19932;-79
2022/04/12 00:02:41;;;;;;;;;;;8.70;99.90;;;;;;5001853;28;19932;-78
2022/04/12 00:05:11;;;;;;;;;;;8.70;99.90;;;;;;5006713;28;19925;-79
2022/04/12 00:07:38;;;;;;;;;;;8.70;99.90;;;;;;4986180;28;19992;-79
2022/04/12 00:10:05;;;;;;;;;;;8.70;99.90;;;;;;4998875;28;19934;-79
2022/04/12 00:12:32;;;;;;;;;;;8.70;99.90;;;;;;5005850;28;19987;-79
2022/04/12 00:14:59;;;;;;;;;;;8.70;99.90;;;;;;5003903;28;19925;-79
2022/04/12 00:20:12;;;;;;;;;;;8.70;99.90;;;;;;5004841;28;19921;-78
2022/04/12 00:22:40;;;;;;;;;;;8.60;99.90;;;;;;5004800;28;19925;-79
2022/04/12 00:25:09;;;;;;;;;;;8.60;99.90;;;;;;5003039;28;19930;-79
2022/04/12 00:27:36;;;;;;;;;;;8.60;99.90;;;;;;5005065;28;21997;-79
2022/04/12 00:30:03;;;;;;;;;;;8.60;99.90;;;;;;4999232;28;19932;-79
2022/04/12 00:32:30;;;;;;;;;;;8.60;99.90;;;;;;4984475;28;19968;-79
2022/04/12 00:34:57;;;;;;;;;;;8.50;99.90;;;;;;5005803;28;19956;-79
2022/04/12 00:37:26;;;;;;;;;;;8.50;99.90;;;;;;5002932;28;20408;-79
2022/04/12 00:39:52;;;;;;;;;;;8.50;99.90;;;;;;4990488;28;19979;-79
2022/04/12 00:42:19;;;;;;;;;;;8.50;99.90;;;;;;5007381;28;19952;-79
2022/04/12 00:44:46;;;;;;;;;;;8.50;99.90;;;;;;5009713;28;19933;-79
2022/04/12 00:47:13;;;;;;;;;;;8.40;99.90;;;;;;5003771;28;19926;-79
2022/04/12 00:49:40;;;;;;;;;;;8.40;99.90;;;;;;5003268;28;19964;-79
2022/04/12 00:52:08;;;;;;;;;;;8.40;99.90;;;;;;5008110;28;19940;-79
2022/04/12 00:54:37;;;;;;;;;;;8.40;99.90;;;;;;4984958;28;19933;-79
2022/04/12 00:57:05;;;;;;;;;;;8.40;99.90;;;;;;4986719;28;19949;-79
2022/04/12 00:59:32;;;;;;;;;;;8.30;99.90;;;;;;4982198;28;19933;-79
2022/04/12 01:02:00;;;;;;;;;;;8.30;99.90;;;;;;4986720;28;20364;-79
2022/04/12 01:04:26;;;;;;;;;;;8.30;99.90;;;;;;5003173;28;20008;-78
2022/04/12 01:06:54;;;;;;;;;;;8.30;99.90;;;;;;5003577;28;19957;-79
2022/04/12 01:09:21;;;;;;;;;;;8.30;99.90;;;;;;4978430;28;19937;-79
2022/04/12 01:11:49;;;;;;;;;;;8.20;99.90;;;;;;4995106;28;19925;-79
2022/04/12 01:14:16;;;;;;;;;;;8.20;99.90;;;;;;4989914;28;19925;-79
2022/04/12 01:16:43;;;;;;;;;;;8.20;99.90;;;;;;5008342;28;19926;-78
2022/04/12 01:19:10;;;;;;;;;;;8.20;99.90;;;;;;4996831;28;19932;-79
2022/04/12 01:21:40;;;;;;;;;;;8.20;99.90;;;;;;5002238;28;19933;-79
2022/04/12 01:24:11;;;;;;;;;;;8.10;99.90;;;;;;4987262;28;19941;-78
2022/04/12 01:26:39;;;;;;;;;;;8.10;99.90;;;;;;4982919;28;19933;-79
2022/04/12 01:29:06;;;;;;;;;;;8.10;99.90;;;;;;4982938;28;19925;-79
2022/04/12 01:31:33;;;;;;;;;;;8.10;99.90;;;;;;5001231;28;20040;-79
2022/04/12 01:34:00;;;;;;;;;;;8.10;99.90;;;;;;5000609;28;19933;-79
2022/04/12 01:36:27;;;;;;;;;;;8.00;99.90;;;;;;5016011;28;20924;-79
2022/04/12 01:38:54;;;;;;;;;;;8.00;99.90;;;;;;5007830;28;19936;-79
2022/04/12 01:41:22;;;;;;;;;;;8.00;99.90;;;;;;5002725;28;20406;-79
2022/04/12 01:43:49;;;;;;;;;;;8.00;99.90;;;;;;4990398;28;19929;-78
2022/04/12 01:46:16;;;;;;;;;;;8.00;99.90;;;;;;4992211;28;19929;-79
2022/04/12 01:48:44;;;;;;;;;;;7.90;99.90;;;;;;4984730;28;19933;-79
2022/04/12 01:51:11;;;;;;;;;;;7.90;99.90;;;;;;5007710;28;19949;-78
2022/04/12 01:53:39;;;;;;;;;;;7.90;99.90;;;;;;5000502;28;19925;-79
2022/04/12 01:56:06;;;;;;;;;;;7.90;99.90;;;;;;5010502;28;20304;-78
2022/04/12 01:58:36;;;;;;;;;;;7.90;99.90;;;;;;5009085;28;19930;-79
2022/04/12 02:01:02;;;;;;;;;;;7.90;99.90;;;;;;5010803;28;19926;-79
2022/04/12 02:03:29;;;;;;;;;;;7.80;99.90;;;;;;5009963;28;19925;-78
2022/04/12 02:05:56;;;;;;;;;;;7.80;99.90;;;;;;5018109;28;20056;-79
2022/04/12 02:08:23;;;;;;;;;;;7.80;99.90;;;;;;5003504;28;19913;-79
2022/04/12 02:10:50;;;;;;;;;;;7.80;99.90;;;;;;5030936;28;20295;-78
2022/04/12 02:13:17;;;;;;;;;;;7.80;99.90;;;;;;5012569;28;19930;-79
2022/04/12 02:15:45;;;;;;;;;;;7.80;99.90;;;;;;5014317;28;19926;-79
2022/04/12 02:18:13;;;;;;;;;;;7.70;99.90;;;;;;5344173;22;19984;-80
2022/04/12 02:20:40;;;;;;;;;;;7.70;99.90;;;;;;5040041;22;19976;-92
2022/04/12 02:23:07;;;;;;;;;;;7.70;99.90;;;;;;4973289;28;19926;-92
2022/04/12 02:25:34;;;;;;;;;;;7.70;99.90;;;;;;4969811;28;20311;-93
2022/04/12 02:28:01;;;;;;;;;;;7.70;99.90;;;;;;4958805;28;19996;-91
2022/04/12 02:30:27;;;;;;;;;;;7.60;99.90;;;;;;4972587;28;19925;-92
2022/04/12 02:32:56;;;;;;;;;;;7.60;99.90;;;;;;4957787;28;20360;-91
2022/04/12 02:35:23;;;;;;;;;;;7.60;99.90;;;;;;4972539;28;19934;-92
2022/04/12 02:37:50;;;;;;;;;;;7.60;99.90;;;;;;4951285;28;19930;-91
2022/04/12 02:40:17;;;;;;;;;;;7.60;99.90;;;;;;4954856;28;19925;-92
2022/04/12 02:42:44;;;;;;;;;;;7.60;99.90;;;;;;4953155;28;19933;-92
2022/04/12 02:45:11;;;;;;;;;;;7.60;99.90;;;;;;4967442;28;19926;-92
2022/04/12 02:47:38;;;;;;;;;;;7.50;99.90;;;;;;4956993;28;19926;-91
2022/04/12 02:50:07;;;;;;;;;;;7.50;99.90;;;;;;4956863;28;19933;-92
2022/04/12 02:52:34;;;;;;;;;;;7.50;99.90;;;;;;4972025;28;19980;-92
2022/04/12 02:55:01;;;;;;;;;;;7.50;99.90;;;;;;4964597;28;19926;-91
2022/04/12 02:57:28;;;;;;;;;;;7.50;99.90;;;;;;4973876;28;19926;-91
2022/04/12 02:59:55;;;;;;;;;;;7.50;99.90;;;;;;4972802;28;20316;-91
2022/04/12 03:02:22;;;;;;;;;;;7.40;99.90;;;;;;4972360;28;20388;-92
2022/04/12 03:04:48;;;;;;;;;;;7.40;99.90;;;;;;4957148;28;19973;-91
2022/04/12 03:07:17;;;;;;;;;;;7.40;99.90;;;;;;4971965;28;20592;-92
2022/04/12 03:09:44;;;;;;;;;;;7.40;99.90;;;;;;4952498;28;19977;-91
2022/04/12 03:12:11;;;;;;;;;;;7.40;99.90;;;;;;4954769;28;20407;-92
2022/04/12 03:14:38;;;;;;;;;;;7.30;99.90;;;;;;4965558;28;19930;-92
2022/04/12 03:17:05;;;;;;;;;;;7.30;99.90;;;;;;4974045;28;19926;-91
2022/04/12 03:19:32;;;;;;;;;;;7.30;99.90;;;;;;4956476;28;20357;-91
2022/04/12 03:21:59;;;;;;;;;;;7.30;99.90;;;;;;4956440;28;19941;-91
2022/04/12 03:24:30;;;;;;;;;;;7.30;99.90;;;;;;4970681;28;19926;-92
2022/04/12 03:26:57;;;;;;;;;;;7.20;99.90;;;;;;4956868;28;19966;-90
2022/04/12 03:29:25;;;;;;;;;;;7.20;99.90;;;;;;4968125;28;20364;-91
2022/04/12 03:31:52;;;;;;;;;;;7.20;99.90;;;;;;4972057;28;20026;-91
2022/04/12 03:34:19;;;;;;;;;;;7.20;99.90;;;;;;4956877;28;19965;-91
2022/04/12 03:36:46;;;;;;;;;;;7.20;99.90;;;;;;4973179;28;19926;-90
2022/04/12 03:39:17;;;;;;;;;;;7.20;99.90;;;;;;4953865;28;19930;-92
2022/04/12 03:41:47;;;;;;;;;;;7.20;99.90;;;;;;4966357;28;21714;-91
2022/04/12 03:44:14;;;;;;;;;;;7.10;99.90;;;;;;4968678;28;19934;-91
2022/04/12 03:46:41;;;;;;;;;;;7.10;99.90;;;;;;4967031;28;19936;-92
2022/04/12 03:49:10;;;;;;;;;;;7.10;99.90;;;;;;4959520;28;20296;-92
2022/04/12 03:51:37;;;;;;;;;;;7.00;99.90;;;;;;4965874;28;19922;-94
2022/04/12 03:54:05;;;;;;;;;;;7.00;99.90;;;;;;4968261;28;19965;-92
2022/04/12 03:56:32;;;;;;;;;;;7.00;99.90;;;;;;4957564;28;19934;-91
2022/04/12 03:59:00;;;;;;;;;;;7.00;99.90;;;;;;4959778;28;20009;-90
2022/04/12 04:01:28;;;;;;;;;;;7.00;99.90;;;;;;4971330;28;19934;-91
2022/04/12 04:03:55;;;;;;;;;;;7.00;99.90;;;;;;4974105;28;20412;-91
2022/04/12 04:06:22;;;;;;;;;;;6.90;99.90;;;;;;4957196;28;19934;-92
2022/04/12 04:08:49;;;;;;;;;;;6.90;99.90;;;;;;4957437;28;19926;-90
2022/04/12 04:11:16;;;;;;;;;;;6.90;99.90;;;;;;4971875;28;19933;-91
2022/04/12 04:13:44;;;;;;;;;;;6.90;99.90;;;;;;4953937;28;19926;-93
2022/04/12 04:16:12;;;;;;;;;;;6.90;99.90;;;;;;4970884;28;20408;-90
2022/04/12 04:18:43;;;;;;;;;;;6.90;99.90;;;;;;4966273;28;19930;-90
2022/04/12 04:21:10;;;;;;;;;;;6.80;99.90;;;;;;4954647;28;19934;-92
2022/04/12 04:23:37;;;;;;;;;;;6.80;99.90;;;;;;4969174;28;20021;-91
2022/04/12 04:26:04;;;;;;;;;;;6.80;99.90;;;;;;4955108;28;20296;-91
2022/04/12 04:28:33;;;;;;;;;;;6.80;99.90;;;;;;4970383;28;19945;-91
2022/04/12 04:31:00;;;;;;;;;;;6.80;99.90;;;;;;4969110;28;19984;-91
2022/04/12 04:33:29;;;;;;;;;;;6.70;99.90;;;;;;4952481;28;19953;-91
2022/04/12 04:35:55;;;;;;;;;;;6.70;99.90;;;;;;4967277;28;19926;-90
2022/04/12 04:38:22;;;;;;;;;;;6.70;99.90;;;;;;4952843;28;19926;-91
2022/04/12 04:40:50;;;;;;;;;;;6.70;99.90;;;;;;4972040;28;19926;-93
2022/04/12 04:43:17;;;;;;;;;;;6.70;99.90;;;;;;4967090;28;19934;-92
2022/04/12 04:45:44;;;;;;;;;;;6.70;99.90;;;;;;4952983;28;19927;-91
2022/04/12 04:48:11;;;;;;;;;;;6.70;99.90;;;;;;4952862;28;19934;-94
2022/04/12 04:50:40;;;;;;;;;;;6.70;99.90;;;;;;4953822;28;19926;-91
2022/04/12 04:53:07;;;;;;;;;;;6.60;99.90;;;;;;4969030;28;19932;-92
2022/04/12 04:55:35;;;;;;;;;;;6.60;99.90;;;;;;4946909;28;19930;-92
2022/04/12 04:58:02;;;;;;;;;;;6.60;99.90;;;;;;4969001;28;19930;-92
2022/04/12 05:00:31;;;;;;;;;;;6.60;99.90;;;;;;4951392;28;19926;-94
2022/04/12 05:02:58;;;;;;;;;;;6.60;99.90;;;;;;4967441;28;19934;-92
2022/04/12 05:05:26;;;;;;;;;;;6.50;99.90;;;;;;4970097;28;19981;-89
2022/04/12 05:07:55;;;;;;;;;;;6.50;99.90;;;;;;4954813;28;19934;-91
2022/04/12 05:10:23;;;;;;;;;;;6.50;99.90;;;;;;4948841;28;19954;-94
2022/04/12 05:12:50;;;;;;;;;;;6.50;99.90;;;;;;4967139;28;19930;-94
2022/04/12 05:15:17;;;;;;;;;;;6.50;99.90;;;;;;4965785;28;19930;-94
2022/04/12 05:17:48;;;;;;;;;;;6.50;99.90;;;;;;4951922;28;19966;-93
2022/04/12 05:20:15;;;;;;;;;;;6.50;99.90;;;;;;4962668;28;19930;-92
2022/04/12 05:22:42;;;;;;;;;;;6.50;99.90;;;;;;4968842;28;19930;-93
2022/04/12 05:25:10;;;;;;;;;;;6.40;99.90;;;;;;4956126;28;19934;-94
2022/04/12 05:27:37;;;;;;;;;;;6.40;99.90;;;;;;4955185;28;19926;-95
2022/04/12 05:30:07;;;;;;;;;;;6.40;99.90;;;;;;4953731;28;20400;-94
2022/04/12 05:32:34;;;;;;;;;;;6.40;99.90;;;;;;4974152;28;20392;-95
2022/04/12 05:35:01;;;;;;;;;;;6.40;99.90;;;;;;4974918;28;19977;-91
2022/04/12 05:37:28;;;;;;;;;;;6.30;99.90;;;;;;4954601;28;19940;-94
2022/04/12 05:39:56;;;;;;;;;;;6.30;99.90;;;;;;4956040;28;19938;-92
2022/04/12 05:42:25;;;;;;;;;;;6.30;99.90;;;;;;4955427;28;19926;-92
2022/04/12 05:44:52;;;;;;;;;;;6.20;99.90;;;;;;4972241;28;19945;-92
2022/04/12 05:47:19;;;;;;;;;;;6.30;99.90;;;;;;4972538;28;19969;-92
2022/04/12 05:49:46;;;;;;;;;;;6.20;99.90;;;;;;4976785;28;19918;-92
2022/04/12 05:52:12;;;;;;;;;;;6.20;99.90;;;;;;4992934;28;20522;-92
2022/04/12 05:54:39;;;;;;;;;;;6.20;99.90;;;;;;4978197;28;20047;-93
2022/04/12 05:57:06;;;;;;;;;;;6.20;99.90;;;;;;4980215;28;19926;-93
2022/04/12 05:59:35;;;;;;;;;;;6.20;99.90;;;;;;4958928;28;20025;-92
2022/04/12 06:02:02;;;;;;;;;;;6.20;99.90;;;;;;4970397;28;20392;-92
2022/04/12 06:04:28;;;;;;;;;;;6.10;99.90;;;;;;4975559;28;19958;-92
2022/04/12 06:06:55;;;;;;;;;;;6.00;99.90;;;;;;4972978;28;19953;-93
2022/04/12 06:09:22;;;;;;;;;;;5.90;99.90;;;;;;4975645;28;19946;-93
2022/04/12 06:11:49;;;;;;;;;;;5.90;99.90;;;;;;4957097;28;19926;-92
2022/04/12 06:14:16;;;;;;;;;;;5.80;99.90;;;;;;4974859;28;20561;-90
2022/04/12 06:16:44;;;;;;;;;;;5.80;99.90;;;;;;4955491;28;19926;-90
2022/04/12 06:19:11;;;;;;;;;;;5.80;99.90;;;;;;4951408;28;19930;-92
2022/04/12 06:21:38;;;;;;;;;;;5.80;99.90;;;;;;4956746;28;20550;-92
2022/04/12 06:24:05;;;;;;;;;;;5.80;99.90;;;;;;4956023;28;19926;-92
2022/04/12 06:26:32;;;;;;;;;;;5.80;99.90;;;;;;4969897;28;19933;-93
2022/04/12 06:28:59;;;;;;;;;;;5.80;99.90;;;;;;4957617;28;19926;-93
2022/04/12 06:31:26;;;;;;;;;;;5.80;99.90;;;;;;4956539;28;20418;-92
2022/04/12 06:33:54;;;;;;;;;;;5.80;99.90;;;;;;4957975;28;19997;-93
2022/04/12 06:36:21;;;;;;;;;;;5.80;99.90;;;;;;4974552;28;19973;-92
2022/04/12 06:38:48;;;;;;;;;;;5.80;99.90;;;;;;4942331;28;19932;-92
2022/04/12 06:41:15;;;;;;;;;;;5.90;99.90;;;;;;4977856;28;19926;-92
2022/04/12 06:43:42;;;;;;;;;;;5.90;99.90;;;;;;4975119;28;19952;-92
2022/04/12 06:46:09;;;;;;;;;;;5.90;99.90;;;;;;4957549;28;19937;-92
2022/04/12 06:48:36;;;;;;;;;;;5.90;99.90;;;;;;4955470;28;19976;-93
2022/04/12 06:51:04;;;;;;;;;;;5.90;99.90;;;;;;4957224;28;19934;-92
2022/04/12 06:53:31;;;;;;;;;;;6.00;99.90;;;;;;4973816;28;19929;-92
2022/04/12 06:55:58;;;;;;;;;;;6.00;99.90;;;;;;4956936;28;19926;-92
2022/04/12 06:58:25;;;;;;;;;;;6.00;99.90;;;;;;4966428;28;19982;-92
2022/04/12 07:00:52;;;;;;;;;;;6.00;99.90;;;;;;4969655;28;19930;-92
2022/04/12 07:03:20;;;;;;;;;;;6.10;99.90;;;;;;4974888;28;19926;-90
2022/04/12 07:05:49;;;;;;;;;;;6.10;99.90;;;;;;4974388;28;20272;-90
2022/04/12 07:08:17;;;;;;;;;;;6.10;99.90;;;;;;4974481;28;19926;-91
2022/04/12 07:10:45;;;;;;;;;;;6.10;99.90;;;;;;4974526;28;20363;-91
2022/04/12 07:13:12;;;;;;;;;;;6.10;99.90;;;;;;4974751;28;19926;-90
2022/04/12 07:15:39;;;;;;;;;;;6.10;99.90;;;;;;4971587;28;19976;-91
2022/04/12 07:18:06;;;;;;;;;;;6.10;99.90;;;;;;4969459;28;19989;-91
2022/04/12 07:20:33;;;;;;;;;;;6.20;99.90;;;;;;4971392;28;19930;-91
2022/04/12 07:23:00;;;;;;;;;;;6.20;99.90;;;;;;4970819;28;19926;-91
2022/04/12 07:25:28;;;;;;;;;;;6.20;99.90;;;;;;4961321;28;19926;-91
2022/04/12 07:27:55;;;;;;;;;;;6.20;99.90;;;;;;4974245;28;19930;-91
2022/04/12 07:30:22;;;;;;;;;;;6.20;99.90;;;;;;4980050;28;19949;-91
2022/04/12 07:32:49;;;;;;;;;;;6.30;99.90;;;;;;4988277;28;20384;-91
2022/04/12 07:35:16;;;;;;;;;;;6.30;99.90;;;;;;4967617;28;19930;-91
2022/04/12 07:37:43;;;;;;;;;;;6.30;99.90;;;;;;4973415;28;19930;-92
2022/04/12 07:40:11;;;;;;;;;;;6.30;99.90;;;;;;4955886;28;20033;-91
2022/04/12 07:42:40;;;;;;;;;;;6.40;99.90;;;;;;4973974;28;19926;-92
2022/04/12 07:45:06;;;;;;;;;;;6.40;99.90;;;;;;4954278;28;20352;-91
2022/04/12 07:47:34;;;;;;;;;;;6.40;99.90;;;;;;4972613;28;20047;-91
2022/04/12 07:50:01;;;;;;;;;;;6.40;99.90;;;;;;4971494;28;19933;-91
2022/04/12 07:52:28;;;;;;;;;;;6.50;99.90;;;;;;4971812;28;19926;-91
2022/04/12 07:54:55;;;;;;;;;;;6.40;99.90;;;;;;4956106;28;19932;-91
2022/04/12 07:57:22;;;;;;;;;;;6.40;99.90;;;;;;4972878;28;19954;-92
2022/04/12 07:59:51;;;;;;;;;;;6.50;99.90;;;;;;4973025;28;19957;-92
2022/04/12 08:02:18;;;;;;;;;;;6.50;99.90;;;;;;4952994;28;19976;-92
2022/04/12 08:04:44;;;;;;;;;;;6.50;99.90;;;;;;4973839;28;19926;-91
2022/04/12 08:07:11;;;;;;;;;;;6.50;99.90;;;;;;4955399;28;20430;-92
2022/04/12 08:09:39;;;;;;;;;;;6.60;99.90;;;;;;4972594;28;19933;-92
2022/04/12 08:12:07;;;;;;;;;;;6.60;99.90;;;;;;4955788;28;19933;-91
2022/04/12 08:14:34;;;;;;;;;;;6.60;99.90;;;;;;4972476;28;20419;-91
2022/04/12 08:17:02;;;;;;;;;;;6.70;99.90;;;;;;4974448;28;19934;-91
2022/04/12 08:19:29;;;;;;;;;;;6.70;99.90;;;;;;4964880;28;20185;-91
2022/04/12 08:21:56;;;;;;;;;;;6.70;99.90;;;;;;4972891;28;19926;-91
2022/04/12 08:24:23;;;;;;;;;;;6.70;99.90;;;;;;4960029;28;19937;-90
2022/04/12 08:26:50;;;;;;;;;;;6.80;99.90;;;;;;4976205;23;19928;-80
2022/04/12 08:29:17;;;;;;;;;;;6.80;99.90;;;;;;5007517;28;19932;-80
2022/04/12 08:31:44;;;;;;;;;;;6.80;99.90;;;;;;4995957;28;20315;-80
2022/04/12 08:34:13;;;;;;;;;;;6.90;99.90;;;;;;5001199;28;19972;-80
2022/04/12 08:36:40;;;;;;;;;;;6.90;99.90;;;;;;5008337;28;19936;-80
2022/04/12 08:39:07;;;;;;;;;;;7.00;99.90;;;;;;4991692;28;19936;-80
2022/04/12 08:41:37;;;;;;;;;;;7.00;99.90;;;;;;4994670;28;19937;-80
2022/04/12 08:44:04;;;;;;;;;;;7.00;99.90;;;;;;5008398;28;19925;-80
2022/04/12 08:46:31;;;;;;;;;;;7.10;99.90;;;;;;5002515;28;19969;-80
2022/04/12 08:48:59;;;;;;;;;;;7.10;99.90;;;;;;4997818;28;19926;-80
2022/04/12 08:51:28;;;;;;;;;;;7.10;99.90;;;;;;5003141;28;20016;-80
2022/04/12 08:53:56;;;;;;;;;;;7.20;99.90;;;;;;5003924;28;19930;-80
2022/04/12 08:56:24;;;;;;;;;;;7.20;99.90;;;;;;5007744;28;20024;-80
2022/04/12 09:01:18;;;;;;;;;;;7.30;99.90;;;;;;5048332;23;20023;-80
2022/04/12 09:03:46;;;;;;;;;;;7.30;99.90;;;;;;5017262;28;19979;-80
2022/04/12 09:06:13;;;;;;;;;;;7.40;99.90;;;;;;5024458;28;20028;-80
2022/04/12 09:08:41;;;;;;;;;;;7.40;99.90;;;;;;5014096;28;20014;-80
2022/04/12 09:11:09;;;;;;;;;;;7.40;99.90;;;;;;5011984;28;19933;-80
2022/04/12 09:13:38;;;;;;;;;;;7.50;99.90;;;;;;5000963;28;21646;-80
2022/04/12 09:16:08;;;;;;;;;;;7.50;99.90;;;;;;5009492;28;20166;-80
2022/04/12 09:18:36;;;;;;;;;;;7.60;99.90;;;;;;5001652;28;19933;-79
2022/04/12 09:21:10;;;;;;;;;;;7.60;99.90;;;;;;5002020;28;20266;-80
2022/04/12 09:23:37;;;;;;;;;;;7.60;99.90;;;;;;5000140;28;19989;-80
2022/04/12 09:26:05;;;;;;;;;;;7.70;99.90;;;;;;4999371;28;19926;-80
2022/04/12 09:28:39;;;;;;;;;;;7.70;99.90;;;;;;5004101;28;20118;-80
2022/04/12 09:31:11;;;;;;;;;;;7.70;99.90;;;;;;4992390;28;19930;-80
2022/04/12 09:33:38;;;;;;;;;;;7.80;99.90;;;;;;5025291;28;19933;-81
2022/04/12 09:36:06;;;;;;;;;;;7.80;99.90;;;;;;5030409;28;19916;-81
2022/04/12 09:38:33;;;;;;;;;;;7.90;99.90;;;;;;5023044;28;19943;-81
2022/04/12 09:41:14;;;;;;;;;;;7.90;99.90;;;;;;5013386;28;19960;-81
2022/04/12 09:43:50;;;;;;;;;;;7.90;99.90;;;;;;5008493;28;20065;-80
2022/04/12 09:46:17;;;;;;;;;;;8.00;99.90;;;;;;5005004;28;19926;-80
2022/04/12 09:48:46;;;;;;;;;;;8.10;99.90;;;;;;5011395;28;19996;-80
2022/04/12 09:51:13;;;;;;;;;;;8.10;99.90;;;;;;5003387;28;19933;-80
2022/04/12 09:53:41;;;;;;;;;;;8.10;99.90;;;;;;5005897;28;19933;-80
2022/04/12 09:56:20;;;;;;;;;;;8.20;99.90;;;;;;5003434;28;19937;-80
2022/04/12 09:58:48;;;;;;;;;;;8.20;99.90;;;;;;5008332;28;20426;-80
2022/04/12 10:01:16;;;;;;;;;;;8.30;99.90;;;;;;5009170;28;19925;-80
2022/04/12 10:03:47;;;;;;;;;;;8.30;99.90;;;;;;4997249;28;20005;-80
2022/04/12 10:06:15;;;;;;;;;;;8.40;99.90;;;;;;5009203;28;20028;-80
2022/04/12 10:08:42;;;;;;;;;;;8.40;99.90;;;;;;5000728;28;20434;-80
2022/04/12 10:11:10;;;;;;;;;;;8.50;99.90;;;;;;5005420;28;20044;-80
2022/04/12 10:13:39;;;;;;;;;;;8.50;99.90;;;;;;5019211;28;20446;-80
2022/04/12 10:16:06;;;;;;;;;;;8.50;99.90;;;;;;5010796;28;19926;-80
2022/04/12 10:18:34;;;;;;;;;;;8.60;99.90;;;;;;5005172;28;19929;-81
2022/04/12 10:21:01;;;;;;;;;;;8.70;99.90;;;;;;5009054;28;19933;-81
2022/04/12 10:23:29;;;;;;;;;;;8.70;99.90;;;;;;5010421;28;19964;-80
2022/04/12 10:25:56;;;;;;;;;;;8.70;99.90;;;;;;5010294;28;19925;-80
2022/04/12 10:28:25;;;;;;;;;;;8.80;99.90;;;;;;5006748;28;19980;-80
2022/04/12 10:31:01;;;;;;;;;;;8.90;99.90;;;;;;5013947;28;19929;-80
2022/04/12 10:33:29;;;;;;;;;;;8.90;99.90;;;;;;5011601;28;19926;-80
2022/04/12 10:36:02;;;;;;;;;;;9.00;99.90;;;;;;5004655;28;20021;-81
2022/04/12 10:38:40;;;;;;;;;;;9.00;99.90;;;;;;5000535;28;19971;-80
2022/04/12 10:41:27;;;;;;;;;;;9.10;99.90;;;;;;5000341;28;19936;-81
2022/04/12 10:43:58;;;;;;;;;;;9.10;99.90;;;;;;5010631;28;19926;-80
2022/04/12 10:46:28;;;;;;;;;;;9.20;99.90;;;;;;5015082;28;19926;-80
2022/04/12 10:48:56;;;;;;;;;;;9.20;99.90;;;;;;5002783;28;20100;-80
2022/04/12 10:51:38;;;;;;;;;;;9.30;99.90;;;;;;5013217;28;19936;-80
2022/04/12 10:54:05;;;;;;;;;;;9.30;99.90;;;;;;5008132;28;19926;-80
2022/04/12 10:56:33;;;;;;;;;;;9.40;99.90;;;;;;5001315;28;19925;-80
2022/04/12 10:59:00;;;;;;;;;;;9.40;99.90;;;;;;5017312;28;20429;-80
2022/04/12 11:01:30;;;;;;;;;;;9.50;99.90;;;;;;5003661;28;19925;-80
2022/04/12 11:03:58;;;;;;;;;;;9.50;99.90;;;;;;5005209;28;20029;-80
2022/04/12 11:06:25;;;;;;;;;;;9.50;99.90;;;;;;5006236;28;20426;-80
2022/04/12 11:08:53;;;;;;;;;;;9.60;99.90;;;;;;5005183;28;20389;-80
2022/04/12 11:11:22;;;;;;;;;;;9.60;99.90;;;;;;5003905;28;20004;-81
2022/04/12 11:13:50;;;;;;;;;;;9.60;99.90;;;;;;5011537;28;19925;-80
2022/04/12 11:16:20;;;;;;;;;;;9.60;99.90;;;;;;5012891;28;19965;-80
2022/04/12 11:18:50;;;;;;;;;;;9.70;99.90;;;;;;5008883;28;19929;-80
2022/04/12 11:21:18;;;;;;;;;;;9.70;99.90;;;;;;5010856;28;19956;-80
2022/04/12 11:23:47;;;;;;;;;;;9.80;99.90;;;;;;5012205;28;19980;-80
2022/04/12 11:26:27;;;;;;;;;;;9.80;99.90;;;;;;5011202;28;19997;-80
2022/04/12 11:28:56;;;;;;;;;;;9.90;99.90;;;;;;5017989;28;20531;-81
2022/04/12 11:31:23;;;;;;;;;;;9.90;99.90;;;;;;5016231;28;19929;-80
2022/04/12 11:33:52;;;;;;;;;;;10.00;99.90;;;;;;5005101;28;19926;-81
2022/04/12 11:36:19;;;;;;;;;;;10.00;99.90;;;;;;5005830;28;20437;-79
2022/04/12 11:38:47;;;;;;;;;;;10.00;99.90;;;;;;5012252;28;19932;-80
2022/04/12 11:41:16;;;;;;;;;;;10.10;99.90;;;;;;5014142;28;19931;-80
2022/04/12 11:43:44;;;;;;;;;;;10.10;99.90;;;;;;5013480;28;19953;-80
2022/04/12 11:46:16;;;;;;;;;;;10.10;99.90;;;;;;4996910;28;19932;-81
2022/04/12 11:48:43;;;;;;;;;;;10.20;99.90;;;;;;5007033;28;19980;-81
2022/04/12 11:51:12;;;;;;;;;;;10.20;99.90;;;;;;5026971;28;19926;-81
2022/04/12 11:53:49;;;;;;;;;;;10.20;99.90;;;;;;5004474;28;19926;-81
2022/04/12 11:56:18;;;;;;;;;;;10.30;99.90;;;;;;5009812;28;19925;-80
2022/04/12 11:58:49;;;;;;;;;;;10.30;99.90;;;;;;5010874;28;19925;-80
2022/04/12 12:01:31;;;;;;;;;;;10.40;99.90;;;;;;5016433;28;19929;-81
2022/04/12 12:04:07;;;;;;;;;;;10.40;99.90;;;;;;5013544;28;19925;-81
2022/04/12 12:06:52;;;;;;;;;;;10.50;99.90;;;;;;5005068;28;19934;-80
2022/04/12 12:09:21;;;;;;;;;;;10.60;99.90;;;;;;5001167;28;19965;-80
2022/04/12 12:11:50;;;;;;;;;;;10.60;99.90;;;;;;5010341;28;20311;-81
2022/04/12 12:14:19;;;;;;;;;;;10.70;99.90;;;;;;4999293;28;19972;-81
2022/04/12 12:17:00;;;;;;;;;;;10.70;99.90;;;;;;5020117;28;19929;-81
2022/04/12 12:19:28;;;;;;;;;;;10.80;99.90;;;;;;5002730;28;19925;-81
2022/04/12 12:22:01;;;;;;;;;;;10.80;99.90;;;;;;5012831;28;19953;-80
2022/04/12 12:24:37;;;;;;;;;;;10.90;99.90;;;;;;5008647;28;19934;-80
2022/04/12 12:27:05;;;;;;;;;;;10.90;99.90;;;;;;5012676;28;19933;-81
2022/04/12 12:29:38;;;;;;;;;;;11.00;99.90;;;;;;5010930;28;20483;-81
2022/04/12 12:32:06;;;;;;;;;;;11.10;99.90;;;;;;5017952;28;19930;-81
2022/04/12 12:34:37;;;;;;;;;;;11.10;99.90;;;;;;5006986;28;19926;-81
2022/04/12 12:37:11;;;;;;;;;;;11.20;99.90;;;;;;5007235;28;19929;-81
2022/04/12 12:39:45;;;;;;;;;;;11.30;99.90;;;;;;5006188;28;19929;-80
2022/04/12 12:42:22;;;;;;;;;;;11.40;99.90;;;;;;4999888;28;19925;-80
2022/04/12 12:44:58;;;;;;;;;;;11.40;99.90;;;;;;5001304;28;19926;-80
2022/04/12 12:50:38;;;;;;;;;;;11.50;99.90;;;;;;5013752;28;19928;-80
2022/04/12 12:53:12;;;;;;;;;;;11.60;99.90;;;;;;5009506;28;19931;-80
2022/04/12 12:55:44;;;;;;;;;;;11.60;99.90;;;;;;5006481;28;19926;-80
2022/04/12 12:58:20;;;;;;;;;;;11.70;99.90;;;;;;5013303;28;19930;-80
2022/04/12 13:01:09;;;;;;;;;;;11.80;99.90;;;;;;5006378;28;19933;-80
2022/04/12 13:03:58;;;;;;;;;;;11.80;99.90;;;;;;5011048;28;20454;-80
2022/04/12 13:06:37;;;;;;;;;;;11.80;99.90;;;;;;5009209;28;19933;-80
2022/04/12 13:09:13;;;;;;;;;;;12.00;99.90;;;;;;5002790;28;19926;-80
2022/04/12 13:11:51;;;;;;;;;;;12.10;99.90;;;;;;5003689;28;19949;-80
2022/04/12 13:14:35;;;;;;;;;;;12.10;99.90;;;;;;5009215;28;19934;-80
2022/04/12 13:17:08;;;;;;;;;;;12.20;99.90;;;;;;5011685;28;19925;-80
2022/04/12 13:19:37;;;;;;;;;;;12.20;99.90;;;;;;4993836;28;20021;-80
2022/04/12 13:22:16;;;;;;;;;;;12.30;99.90;;;;;;5008774;28;19953;-80
2022/04/12 13:24:46;;;;;;;;;;;12.40;99.90;;;;;;5024355;28;19937;-81
2022/04/12 13:27:13;;;;;;;;;;;12.40;99.90;;;;;;5030521;28;19932;-79
2022/04/12 13:29:40;;;;;;;;;;;12.50;99.90;;;;;;5028498;28;19933;-79
2022/04/12 13:32:07;;;;;;;;;;;12.50;99.90;;;;;;5004100;28;19933;-78
2022/04/12 13:34:34;;;;;;;;;;;12.60;99.90;;;;;;5005415;28;19925;-79
2022/04/12 13:37:01;;;;;;;;;;;12.70;99.90;;;;;;5019298;28;19936;-79
2022/04/12 13:42:11;;;;;;;;;;;12.80;99.90;;;;;;5172736;23;19930;-80
2022/04/12 13:47:30;;;;;;;;;;;12.90;99.90;;;;;;6074926;23;19928;-81
2022/04/12 13:49:57;;;;;;;;;;;13.00;99.90;;;;;;5026748;28;19933;-80
2022/04/12 13:52:24;;;;;;;;;;;13.10;99.90;;;;;;5031157;28;19986;-80
2022/04/12 13:54:52;;;;;;;;;;;13.10;99.90;;;;;;5019702;28;19926;-80
2022/04/12 13:57:24;;;;;;;;;;;13.20;99.90;;;;;;5019961;28;19975;-80
2022/04/12 13:59:52;;;;;;;;;;;13.20;99.90;;;;;;5036843;28;20326;-80
2022/04/12 14:02:19;;;;;;;;;;;13.30;99.90;;;;;;5006564;28;19925;-80
2022/04/12 14:04:48;;;;;;;;;;;13.30;99.90;;;;;;5004923;28;19933;-80
2022/04/12 14:07:29;;;;;;;;;;;13.40;99.90;;;;;;5030015;28;20387;-81
2022/04/12 14:10:24;;;;;;;;;;;13.40;99.90;;;;;;5023810;28;20326;-81
2022/04/12 14:12:58;;;;;;;;;;;13.50;99.90;;;;;;5021492;28;19925;-81
2022/04/12 14:15:35;;;;;;;;;;;13.50;99.90;;;;;;5038903;28;19925;-81
2022/04/12 14:18:21;;;;;;;;;;;13.60;99.90;;;;;;5025737;28;19925;-81
2022/04/12 14:20:59;;;;;;;;;;;13.60;99.90;;;;;;5038655;28;20407;-81
2022/04/12 14:26:35;;;;;;;;;;;13.70;99.90;;;;;;5022216;28;20003;-79
2022/04/12 14:29:04;;;;;;;;;;;13.70;99.90;;;;;;5025167;28;19925;-79
2022/04/12 14:31:31;;;;;;;;;;;13.80;99.90;;;;;;5026518;28;20007;-78
2022/04/12 14:33:58;;;;;;;;;;;13.80;99.90;;;;;;5021061;23;19925;-96
2022/04/12 14:36:26;;;;;;;;;;;13.90;99.90;;;;;;5010561;28;19917;-94
2022/04/12 14:38:53;;;;;;;;;;;13.90;99.90;;;;;;5011017;28;19926;-92
2022/04/12 14:41:21;;;;;;;;;;;14.00;99.90;;;;;;5013826;28;19926;-93
2022/04/12 14:43:48;;;;;;;;;;;14.00;99.90;;;;;;5010564;28;19914;-96
2022/04/12 14:46:16;;;;;;;;;;;14.10;99.90;;;;;;5030067;28;19938;-96
2022/04/12 14:48:44;;;;;;;;;;;14.10;99.90;;;;;;5000869;28;19933;-95
2022/04/12 14:51:11;;;;;;;;;;;14.10;99.90;;;;;;5029978;28;19936;-95